Time;durP1;ratioP1;P1;durP2;ratioP2;P2;SDS_P1;SDS_P2;PMS_P1;PMS_P2;Temp;Humidity;BMP_temperature;BMP_pressure;BME280_temperature;BME280_humidity;BME280_pressure;Samples;Min_cycle;Max_cycle;Signal;HPM_P1;HPM_P2
2023/04/17 00:02:21;;;;;;;6.88;2.90;;;11.70;99.90;;;;;;5112792;28;20028;-66
2023/04/17 00:04:47;;;;;;;6.30;2.83;;;11.60;99.90;;;;;;5112293;28;20027;-66
2023/04/17 00:07:12;;;;;;;5.60;2.95;;;11.70;99.90;;;;;;5112987;28;20376;-66
2023/04/17 00:09:38;;;;;;;5.20;2.95;;;11.70;99.90;;;;;;5112269;28;20027;-66
2023/04/17 00:12:04;;;;;;;5.15;2.80;;;11.60;99.90;;;;;;5112345;28;20095;-64
2023/04/17 00:14:30;;;;;;;5.13;2.83;;;11.60;99.90;;;;;;5112606;28;20062;-65
2023/04/17 00:16:55;;;;;;;7.97;3.10;;;11.60;99.90;;;;;;5112365;28;20031;-65
2023/04/17 00:19:21;;;;;;;5.03;2.95;;;11.60;99.90;;;;;;5112925;28;20111;-65
2023/04/17 00:21:47;;;;;;;4.90;3.00;;;11.60;99.90;;;;;;5094187;28;20031;-66
2023/04/17 00:24:13;;;;;;;5.80;2.90;;;11.50;99.90;;;;;;5112056;28;20055;-65
2023/04/17 00:26:39;;;;;;;6.57;3.10;;;11.50;99.90;;;;;;5112904;28;20023;-66
2023/04/17 00:29:04;;;;;;;6.03;2.70;;;11.50;99.90;;;;;;5112488;28;20023;-65
2023/04/17 00:31:30;;;;;;;4.55;2.78;;;11.50;99.90;;;;;;5112430;28;20107;-66
2023/04/17 00:33:57;;;;;;;5.72;3.05;;;11.50;99.90;;;;;;5112482;28;20040;-65
2023/04/17 00:36:23;;;;;;;6.00;3.35;;;11.50;99.90;;;;;;5112564;28;20097;-65
2023/04/17 00:38:49;;;;;;;7.32;3.15;;;11.40;99.90;;;;;;5112103;28;20072;-66
2023/04/17 00:41:15;;;;;;;8.02;3.20;;;11.40;99.90;;;;;;5112172;28;20023;-66
2023/04/17 00:43:41;;;;;;;4.75;2.97;;;11.40;99.90;;;;;;5112719;28;20030;-65
2023/04/17 00:46:07;;;;;;;6.25;3.25;;;11.40;99.90;;;;;;5112293;28;20027;-65
2023/04/17 00:48:35;;;;;;;5.88;3.10;;;11.30;99.90;;;;;;5112192;28;20069;-66
2023/04/17 00:51:02;;;;;;;5.43;3.10;;;11.30;99.90;;;;;;5111840;28;20063;-66
2023/04/17 00:53:31;;;;;;;6.18;2.95;;;11.30;99.90;;;;;;5112015;28;20107;-66
2023/04/17 00:56:04;;;;;;;8.75;3.47;;;11.30;99.90;;;;;;5115853;28;20028;-66
2023/04/17 00:58:30;;;;;;;4.40;3.20;;;11.20;99.90;;;;;;5115943;28;20029;-66
2023/04/17 01:00:56;;;;;;;7.05;3.53;;;11.20;99.90;;;;;;5116100;28;20080;-66
2023/04/17 01:03:22;;;;;;;5.90;3.58;;;11.10;99.90;;;;;;5116079;28;20020;-66
2023/04/17 01:05:50;;;;;;;6.03;3.50;;;11.10;99.90;;;;;;5115925;28;20024;-66
2023/04/17 01:08:17;;;;;;;6.07;3.83;;;11.10;99.90;;;;;;5115462;28;20506;-66
2023/04/17 01:10:42;;;;;;;5.30;3.33;;;11.10;99.90;;;;;;5116197;28;20546;-66
2023/04/17 01:13:08;;;;;;;7.38;3.90;;;11.00;99.90;;;;;;5115505;28;20059;-66
2023/04/17 01:15:35;;;;;;;6.85;3.92;;;11.00;99.90;;;;;;5115868;28;20020;-66
2023/04/17 01:18:01;;;;;;;6.20;3.55;;;11.00;99.90;;;;;;5116065;28;20031;-66
2023/04/17 01:20:29;;;;;;;8.07;3.53;;;10.90;99.90;;;;;;5115605;28;20034;-66
2023/04/17 01:22:57;;;;;;;5.50;3.67;;;10.90;99.90;;;;;;5115396;28;20016;-66
2023/04/17 01:25:23;;;;;;;6.85;3.60;;;10.90;99.90;;;;;;5115546;28;20012;-65
2023/04/17 01:27:49;;;;;;;8.77;3.65;;;10.90;99.90;;;;;;5115720;28;20468;-65
2023/04/17 01:30:14;;;;;;;7.18;3.50;;;10.80;99.90;;;;;;5115486;28;20019;-65
2023/04/17 01:32:40;;;;;;;6.70;3.88;;;10.80;99.90;;;;;;5115835;28;20057;-66
2023/04/17 01:35:06;;;;;;;6.93;3.60;;;10.80;99.90;;;;;;5114922;28;20024;-66
2023/04/17 01:37:32;;;;;;;5.82;3.78;;;10.70;99.90;;;;;;5115347;28;20020;-66
2023/04/17 01:39:58;;;;;;;5.03;3.20;;;10.70;99.90;;;;;;5115476;28;20093;-65
2023/04/17 01:42:24;;;;;;;6.25;3.50;;;10.70;99.90;;;;;;5115216;28;20023;-65
2023/04/17 01:44:50;;;;;;;6.28;3.58;;;10.70;99.90;;;;;;5115394;28;20080;-66
2023/04/17 01:47:16;;;;;;;5.70;3.70;;;10.60;99.90;;;;;;5115317;28;20035;-66
2023/04/17 01:49:41;;;;;;;4.22;3.30;;;10.50;99.90;;;;;;5115148;28;20023;-65
2023/04/17 01:52:07;;;;;;;6.82;3.50;;;10.50;99.90;;;;;;5114881;28;20031;-65
2023/04/17 01:54:33;;;;;;;6.40;3.70;;;10.50;99.90;;;;;;5115213;28;20464;-66
2023/04/17 01:56:58;;;;;;;5.72;3.28;;;10.40;99.90;;;;;;5114853;28;20031;-66
2023/04/17 01:59:24;;;;;;;6.53;3.65;;;10.40;99.90;;;;;;5114947;28;20068;-65
2023/04/17 02:01:50;;;;;;;5.90;3.58;;;10.40;99.90;;;;;;5114826;28;20091;-65
2023/04/17 02:04:16;;;;;;;6.03;3.45;;;10.40;99.90;;;;;;5114821;28;20360;-65
2023/04/17 02:06:42;;;;;;;5.20;3.60;;;10.40;99.90;;;;;;5114203;28;20027;-66
2023/04/17 02:09:07;;;;;;;6.18;3.13;;;10.30;99.90;;;;;;5115028;28;20062;-66
2023/04/17 02:11:33;;;;;;;5.28;3.42;;;10.30;99.90;;;;;;5114201;28;20055;-65
2023/04/17 02:13:59;;;;;;;4.93;3.45;;;10.30;99.90;;;;;;5114680;28;20092;-66
2023/04/17 02:16:25;;;;;;;6.45;3.10;;;10.30;99.90;;;;;;5114750;28;20092;-66
2023/04/17 02:18:51;;;;;;;6.15;3.53;;;10.30;99.90;;;;;;5114371;28;20055;-66
2023/04/17 02:21:16;;;;;;;6.60;3.65;;;10.20;99.90;;;;;;5113936;28;20412;-65
2023/04/17 02:23:42;;;;;;;4.90;3.40;;;10.20;99.90;;;;;;5114435;28;20028;-66
2023/04/17 02:26:08;;;;;;;7.35;3.50;;;10.10;99.90;;;;;;5114116;28;20102;-65
2023/04/17 02:28:34;;;;;;;5.13;3.75;;;10.10;99.90;;;;;;5114409;28;20115;-66
2023/04/17 02:31:00;;;;;;;5.68;3.28;;;10.10;99.90;;;;;;5114353;28;20035;-66
2023/04/17 02:33:26;;;;;;;4.32;3.22;;;10.10;99.90;;;;;;5114461;28;20089;-64
2023/04/17 02:35:52;;;;;;;6.05;3.58;;;10.10;99.90;;;;;;5113614;28;20023;-66
2023/04/17 02:38:18;;;;;;;5.25;3.55;;;10.10;99.90;;;;;;5114032;28;20028;-66
2023/04/17 02:40:44;;;;;;;5.15;3.22;;;10.00;99.90;;;;;;5114399;28;20028;-65
2023/04/17 02:43:12;;;;;;;6.88;3.78;;;10.00;99.90;;;;;;5114087;28;20447;-65
2023/04/17 02:45:37;;;;;;;6.50;3.50;;;10.00;99.90;;;;;;5114010;28;20016;-65
2023/04/17 02:48:03;;;;;;;6.55;3.35;;;9.90;99.90;;;;;;5114314;28;20027;-65
2023/04/17 02:50:29;;;;;;;4.22;3.38;;;9.90;99.90;;;;;;5113672;28;20483;-65
2023/04/17 02:52:54;;;;;;;4.57;3.40;;;9.80;99.90;;;;;;5113741;28;20514;-66
2023/04/17 02:55:20;;;;;;;6.63;3.50;;;9.80;99.90;;;;;;5114343;28;20024;-65
2023/04/17 02:57:46;;;;;;;6.75;3.70;;;9.80;99.90;;;;;;5113911;28;20132;-65
2023/04/17 03:00:12;;;;;;;5.70;3.53;;;9.70;99.90;;;;;;5113921;28;20059;-66
2023/04/17 03:02:38;;;;;;;5.00;3.15;;;9.60;99.90;;;;;;5113830;28;20032;-65
2023/04/17 03:05:05;;;;;;;5.63;3.70;;;9.60;99.90;;;;;;5113657;28;20390;-65
2023/04/17 03:07:31;;;;;;;6.00;3.47;;;9.60;99.90;;;;;;5111106;28;20099;-66
2023/04/17 03:09:58;;;;;;;5.07;3.60;;;9.60;99.90;;;;;;5093080;28;20024;-66
2023/04/17 03:12:24;;;;;;;5.45;3.38;;;9.60;99.90;;;;;;5092849;28;20048;-66
2023/04/17 03:14:50;;;;;;;4.28;3.40;;;9.50;99.90;;;;;;5075378;28;20430;-66
2023/04/17 03:17:16;;;;;;;6.15;3.60;;;9.50;99.90;;;;;;5092141;28;20495;-65
2023/04/17 03:19:42;;;;;;;5.82;3.63;;;9.50;99.90;;;;;;5092808;28;20024;-65
2023/04/17 03:22:08;;;;;;;7.28;3.75;;;9.50;99.90;;;;;;5092901;28;20069;-65
2023/04/17 03:24:33;;;;;;;6.47;3.80;;;9.50;99.90;;;;;;5093271;28;20558;-65
2023/04/17 03:27:01;;;;;;;6.25;3.50;;;9.50;99.90;;;;;;5092915;28;20059;-66
2023/04/17 03:29:26;;;;;;;5.22;3.60;;;9.40;99.90;;;;;;5074627;28;20484;-65
2023/04/17 03:31:52;;;;;;;6.18;4.15;;;9.40;99.90;;;;;;5092789;28;20032;-65
2023/04/17 03:34:20;;;;;;;4.30;3.53;;;9.30;99.90;;;;;;5092719;28;20024;-64
2023/04/17 03:36:46;;;;;;;7.15;4.18;;;9.30;99.90;;;;;;5092637;28;20114;-64
2023/04/17 03:39:11;;;;;;;5.85;3.78;;;9.30;99.90;;;;;;5092750;28;20059;-66
2023/04/17 03:41:37;;;;;;;4.93;3.50;;;9.30;99.90;;;;;;5092711;28;20024;-65
2023/04/17 03:44:04;;;;;;;4.55;3.60;;;9.20;99.90;;;;;;5093106;28;20020;-65
2023/04/17 03:46:30;;;;;;;6.65;3.88;;;9.20;99.90;;;;;;5092481;28;20521;-65
2023/04/17 03:48:56;;;;;;;7.43;4.00;;;9.20;99.90;;;;;;5092073;28;20035;-66
2023/04/17 03:51:22;;;;;;;6.15;3.60;;;9.10;99.90;;;;;;5092528;28;20024;-65
2023/04/17 03:53:47;;;;;;;5.18;3.35;;;9.10;99.90;;;;;;5092863;28;20137;-65
2023/04/17 03:56:13;;;;;;;4.75;3.50;;;9.10;99.90;;;;;;5092417;28;20046;-65
2023/04/17 03:58:39;;;;;;;5.38;3.60;;;9.10;99.90;;;;;;5092545;28;20047;-66
2023/04/17 04:01:09;;;;;;;7.13;3.88;;;9.00;99.90;;;;;;5091941;28;20362;-65
2023/04/17 04:03:35;;;;;;;5.72;4.03;;;9.00;99.90;;;;;;5092387;28;20059;-65
2023/04/17 04:06:01;;;;;;;4.88;3.70;;;8.90;99.90;;;;;;5092343;28;20081;-65
2023/04/17 04:08:27;;;;;;;6.30;3.50;;;8.80;99.90;;;;;;5102388;28;20036;-65
2023/04/17 04:10:53;;;;;;;4.65;3.38;;;8.80;99.90;;;;;;5094172;28;20035;-65
2023/04/17 04:13:18;;;;;;;4.65;3.70;;;8.90;99.90;;;;;;5112434;28;20035;-66
2023/04/17 04:15:44;;;;;;;4.30;3.40;;;8.80;99.90;;;;;;5113021;28;20028;-65
2023/04/17 04:18:10;;;;;;;7.40;3.45;;;8.80;99.90;;;;;;5112363;28;20514;-65
2023/04/17 04:20:35;;;;;;;5.43;3.67;;;8.80;99.90;;;;;;5112701;28;20023;-65
2023/04/17 04:23:02;;;;;;;4.93;3.72;;;8.80;99.90;;;;;;5112499;28;20032;-66
2023/04/17 04:25:28;;;;;;;6.53;3.70;;;8.80;99.90;;;;;;5112528;28;20534;-66
2023/04/17 04:27:55;;;;;;;8.10;4.25;;;8.80;99.90;;;;;;5113134;28;20160;-66
2023/04/17 04:30:21;;;;;;;7.30;4.00;;;8.90;99.90;;;;;;5116443;28;20035;-66
2023/04/17 04:32:47;;;;;;;4.43;3.97;;;8.80;99.90;;;;;;5116626;28;20036;-65
2023/04/17 04:35:13;;;;;;;7.82;4.00;;;8.90;99.90;;;;;;5116772;28;20529;-65
2023/04/17 04:37:41;;;;;;;5.03;3.80;;;8.90;99.90;;;;;;5116641;28;20050;-64
2023/04/17 04:40:10;;;;;;;4.38;3.70;;;8.90;99.90;;;;;;5116889;28;20502;-65
2023/04/17 04:42:38;;;;;;;6.25;4.32;;;8.90;99.90;;;;;;5116587;28;20046;-65
2023/04/17 04:45:05;;;;;;;6.65;4.10;;;8.90;99.90;;;;;;5116041;28;20059;-65
2023/04/17 04:47:30;;;;;;;7.43;4.50;;;8.90;99.90;;;;;;5098018;28;20028;-65
2023/04/17 04:49:56;;;;;;;6.88;4.05;;;8.90;99.90;;;;;;5116297;28;20031;-65
2023/04/17 04:52:22;;;;;;;6.32;4.00;;;8.90;99.90;;;;;;5116109;28;20534;-64
2023/04/17 04:54:47;;;;;;;9.55;4.20;;;8.80;99.90;;;;;;5116574;28;20433;-65
2023/04/17 04:57:13;;;;;;;10.50;4.38;;;8.80;99.90;;;;;;5116103;28;20028;-65
2023/04/17 04:59:39;;;;;;;7.30;4.53;;;8.70;99.90;;;;;;5116079;28;20031;-65
2023/04/17 05:02:04;;;;;;;9.20;4.50;;;8.70;99.90;;;;;;5116034;28;20039;-65
2023/04/17 05:04:30;;;;;;;9.75;4.43;;;8.70;99.90;;;;;;5116440;28;20115;-65
2023/04/17 05:06:56;;;;;;;7.70;4.45;;;8.70;99.90;;;;;;5116019;28;20031;-65
2023/04/17 05:09:22;;;;;;;8.02;4.72;;;8.70;99.90;;;;;;5115962;28;20028;-66
2023/04/17 05:11:47;;;;;;;7.43;4.78;;;8.70;99.90;;;;;;5115644;28;20130;-65
2023/04/17 05:14:13;;;;;;;7.40;4.20;;;8.80;99.90;;;;;;5097096;28;20028;-65
2023/04/17 05:16:40;;;;;;;6.80;4.60;;;8.80;99.90;;;;;;5115784;28;20050;-65
2023/04/17 05:19:05;;;;;;;6.47;4.35;;;8.80;99.90;;;;;;5116142;28;20500;-65
2023/04/17 05:21:31;;;;;;;7.88;4.60;;;8.80;99.90;;;;;;5115808;28;20034;-64
2023/04/17 05:23:57;;;;;;;6.97;4.55;;;8.80;99.90;;;;;;5115906;28;20084;-65
2023/04/17 05:26:23;;;;;;;7.35;4.10;;;8.90;99.90;;;;;;5115481;28;20114;-65
2023/04/17 05:28:49;;;;;;;8.45;4.60;;;8.90;99.90;;;;;;5115762;28;20507;-65
2023/04/17 05:31:15;;;;;;;6.75;4.45;;;8.90;99.90;;;;;;5115695;28;20027;-65
2023/04/17 05:33:41;;;;;;;6.75;4.45;;;8.90;99.90;;;;;;5115384;28;20039;-65
2023/04/17 05:36:07;;;;;;;5.82;4.13;;;8.80;99.90;;;;;;5115417;28;20015;-65
2023/04/17 05:38:32;;;;;;;7.32;4.55;;;8.90;99.90;;;;;;5115503;28;20092;-65
2023/04/17 05:41:00;;;;;;;7.00;5.22;;;8.90;99.90;;;;;;5113525;28;20516;-66
2023/04/17 05:43:26;;;;;;;7.70;4.75;;;8.90;99.90;;;;;;5114433;28;20023;-65
2023/04/17 05:45:51;;;;;;;7.68;4.85;;;8.80;99.90;;;;;;5114779;28;20015;-65
2023/04/17 05:48:17;;;;;;;7.57;4.60;;;8.80;99.90;;;;;;5114528;28;20498;-66
2023/04/17 05:50:43;;;;;;;6.28;4.72;;;8.80;99.90;;;;;;5114691;28;20023;-65
2023/04/17 05:53:09;;;;;;;6.82;4.55;;;8.80;99.90;;;;;;5114951;28;20060;-64
2023/04/17 05:55:35;;;;;;;7.82;4.60;;;8.70;99.90;;;;;;5115192;28;20034;-65
2023/04/17 05:58:01;;;;;;;7.30;4.80;;;8.70;99.90;;;;;;5114516;28;20032;-64
2023/04/17 06:00:27;;;;;;;7.50;4.78;;;8.70;99.90;;;;;;5114841;28;20429;-65
2023/04/17 06:02:53;;;;;;;7.07;4.60;;;8.70;99.90;;;;;;5114957;28;20035;-65
2023/04/17 06:05:19;;;;;;;5.65;4.50;;;8.70;99.90;;;;;;5115332;28;20030;-66
2023/04/17 06:07:45;;;;;;;8.15;4.45;;;8.80;99.90;;;;;;5114832;28;20036;-65
2023/04/17 06:10:11;;;;;;;7.78;4.68;;;8.80;99.90;;;;;;5114830;28;20027;-65
2023/04/17 06:12:37;;;;;;;8.57;4.35;;;8.70;99.90;;;;;;5114364;28;20079;-65
2023/04/17 06:15:03;;;;;;;6.75;4.60;;;8.70;99.90;;;;;;5114788;28;20434;-66
2023/04/17 06:17:31;;;;;;;8.77;4.53;;;8.80;99.90;;;;;;5114700;28;20027;-65
2023/04/17 06:19:57;;;;;;;6.00;4.10;;;8.70;99.90;;;;;;5114761;28;20031;-65
2023/04/17 06:22:23;;;;;;;7.82;4.55;;;8.70;99.90;;;;;;5114675;28;20399;-65
2023/04/17 06:24:48;;;;;;;7.03;4.55;;;8.70;99.90;;;;;;5114564;28;20460;-65
2023/04/17 06:27:14;;;;;;;6.95;4.57;;;8.80;99.90;;;;;;5113881;28;20104;-66
2023/04/17 06:29:40;;;;;;;7.30;4.88;;;8.80;99.90;;;;;;5114899;28;20039;-65
2023/04/17 06:32:05;;;;;;;8.15;4.72;;;8.90;99.90;;;;;;5114150;28;20035;-65
2023/04/17 06:34:32;;;;;;;6.93;4.60;;;8.90;99.90;;;;;;5114328;28;20231;-65
2023/04/17 06:36:59;;;;;;;5.95;4.85;;;8.90;99.90;;;;;;5114195;28;20028;-64
2023/04/17 06:39:25;;;;;;;7.07;4.70;;;9.00;99.90;;;;;;5114027;28;20107;-64
2023/04/17 06:41:50;;;;;;;9.38;4.68;;;9.10;99.90;;;;;;5113801;28;20047;-65
2023/04/17 06:44:17;;;;;;;8.98;4.28;;;9.10;99.90;;;;;;5114198;28;20031;-65
2023/04/17 06:46:43;;;;;;;6.25;4.35;;;9.20;99.90;;;;;;5114082;28;20057;-65
2023/04/17 06:49:08;;;;;;;6.65;4.40;;;9.20;99.90;;;;;;5114355;28;20487;-65
2023/04/17 06:51:34;;;;;;;5.68;3.92;;;9.20;99.90;;;;;;5113132;28;20024;-65
2023/04/17 06:54:00;;;;;;;9.02;4.22;;;9.20;99.90;;;;;;5113743;28;20028;-66
2023/04/17 06:56:25;;;;;;;8.45;3.88;;;9.30;99.90;;;;;;5113640;28;20026;-66
2023/04/17 06:58:52;;;;;;;6.35;3.88;;;9.30;99.90;;;;;;5113836;28;20099;-66
2023/04/17 07:01:19;;;;;;;6.15;3.65;;;9.40;99.90;;;;;;5113869;28;20020;-66
2023/04/17 07:03:45;;;;;;;6.60;3.70;;;9.40;99.90;;;;;;5113671;28;20020;-66
2023/04/17 07:06:11;;;;;;;6.20;3.60;;;9.40;99.90;;;;;;5113952;28;20690;-66
2023/04/17 07:08:37;;;;;;;9.35;3.80;;;9.50;99.90;;;;;;5113440;28;20023;-66
2023/04/17 07:11:02;;;;;;;5.70;3.50;;;9.60;99.90;;;;;;5113064;28;20125;-66
2023/04/17 07:13:30;;;;;;;4.82;3.30;;;9.60;99.90;;;;;;5113364;28;20047;-67
2023/04/17 07:15:57;;;;;;;6.53;3.58;;;9.60;99.90;;;;;;5121193;27;20428;-66
2023/04/17 07:18:25;;;;;;;6.78;3.60;;;9.70;99.90;;;;;;5123733;27;20020;-66
2023/04/17 07:20:51;;;;;;;5.30;3.30;;;9.80;99.90;;;;;;5119478;27;20016;-65
2023/04/17 07:23:17;;;;;;;5.20;3.22;;;9.80;99.90;;;;;;5121868;27;20019;-66
2023/04/17 07:25:43;;;;;;;6.28;3.35;;;9.90;99.90;;;;;;5130348;27;20035;-66
2023/04/17 07:28:08;;;;;;;7.03;3.55;;;9.90;99.90;;;;;;5133761;27;20050;-66
2023/04/17 07:30:35;;;;;;;5.85;3.30;;;10.00;99.90;;;;;;5133746;27;20510;-66
2023/04/17 07:33:01;;;;;;;6.28;3.30;;;10.10;99.90;;;;;;5133766;27;20095;-66
2023/04/17 07:35:27;;;;;;;7.30;3.60;;;10.10;99.90;;;;;;5133757;27;20091;-66
2023/04/17 07:37:54;;;;;;;5.18;3.70;;;10.20;99.90;;;;;;5133824;27;20428;-66
2023/04/17 07:40:20;;;;;;;6.70;3.97;;;10.30;99.90;;;;;;5133262;27;20031;-67
2023/04/17 07:42:46;;;;;;;6.70;3.75;;;10.30;99.90;;;;;;5133592;27;20038;-67
2023/04/17 07:45:11;;;;;;;6.65;3.40;;;10.40;99.90;;;;;;5133542;27;20090;-66
2023/04/17 07:47:37;;;;;;;5.88;3.58;;;10.50;99.90;;;;;;5133737;27;20027;-66
2023/04/17 07:50:03;;;;;;;4.90;3.50;;;10.50;99.90;;;;;;5133305;27;20023;-66
2023/04/17 07:52:29;;;;;;;7.13;3.47;;;10.60;99.90;;;;;;5133386;27;20507;-65
2023/04/17 07:54:55;;;;;;;7.97;3.95;;;10.60;99.90;;;;;;5133012;27;20031;-65
2023/04/17 07:57:25;;;;;;;7.00;3.20;;;10.70;99.90;;;;;;5133417;27;20479;-65
2023/04/17 07:59:52;;;;;;;5.25;3.08;;;10.80;99.90;;;;;;5115866;27;20015;-65
2023/04/17 08:02:18;;;;;;;5.63;3.20;;;10.80;99.90;;;;;;5133192;27;20031;-65
2023/04/17 08:04:44;;;;;;;4.78;3.45;;;10.90;99.90;;;;;;5133054;27;20018;-65
2023/04/17 08:07:11;;;;;;;5.45;3.40;;;11.00;99.90;;;;;;5132999;27;20031;-64
2023/04/17 08:09:37;;;;;;;6.18;3.40;;;11.00;99.90;;;;;;5093085;27;20052;-64
2023/04/17 08:12:03;;;;;;;5.10;3.33;;;11.10;99.90;;;;;;5091715;28;20500;-64
2023/04/17 08:14:31;;;;;;;5.50;3.40;;;11.20;99.90;;;;;;5092142;28;20055;-64
2023/04/17 08:16:57;;;;;;;5.80;3.20;;;11.20;99.90;;;;;;5092122;28;20030;-65
2023/04/17 08:19:22;;;;;;;5.00;3.10;;;11.30;99.90;;;;;;5092539;28;20554;-66
2023/04/17 08:21:49;;;;;;;5.38;3.20;;;11.30;99.90;;;;;;5115578;28;20023;-64
2023/04/17 08:24:16;;;;;;;5.30;2.78;;;11.40;99.90;;;;;;5121968;28;20027;-65
2023/04/17 08:26:42;;;;;;;4.85;3.00;;;11.40;99.90;;;;;;5120987;28;20023;-66
2023/04/17 08:29:08;;;;;;;6.72;3.00;;;11.50;99.90;;;;;;5123069;28;20027;-65
2023/04/17 08:31:35;;;;;;;3.78;2.60;;;11.60;99.90;;;;;;5122135;28;20024;-65
2023/04/17 08:34:02;;;;;;;5.78;3.17;;;11.60;99.90;;;;;;5122517;28;20085;-66
2023/04/17 08:36:28;;;;;;;6.70;2.70;;;11.70;99.90;;;;;;5120862;28;20047;-65
2023/04/17 08:38:55;;;;;;;4.20;2.80;;;11.80;99.90;;;;;;5121837;28;20027;-65
2023/04/17 08:41:24;;;;;;;4.88;3.22;;;11.80;99.90;;;;;;5122715;28;20580;-66
2023/04/17 08:43:50;;;;;;;4.55;2.95;;;11.90;99.90;;;;;;5118096;28;20016;-66
2023/04/17 08:46:19;;;;;;;4.82;3.13;;;12.00;99.90;;;;;;5121981;28;20020;-64
2023/04/17 08:48:45;;;;;;;5.90;3.22;;;12.10;99.90;;;;;;5118396;28;20023;-65
2023/04/17 08:51:12;;;;;;;4.78;2.90;;;12.20;99.90;;;;;;5113856;28;20388;-65
2023/04/17 08:53:38;;;;;;;3.75;2.58;;;12.20;99.90;;;;;;5112996;28;20038;-65
2023/04/17 08:56:05;;;;;;;5.07;2.78;;;12.20;99.90;;;;;;5111922;28;20024;-65
2023/04/17 08:58:35;;;;;;;4.28;2.75;;;12.30;99.90;;;;;;5111903;28;20032;-66
2023/04/17 09:01:12;;;;;;;5.72;2.70;;;12.30;99.90;;;;;;5114388;28;20042;-66
2023/04/17 09:03:42;;;;;;;6.35;2.80;;;12.40;99.90;;;;;;5122614;28;20031;-66
2023/04/17 09:06:10;;;;;;;5.10;3.00;;;12.50;99.90;;;;;;5121733;28;20024;-65
2023/04/17 09:08:36;;;;;;;3.65;2.72;;;12.60;99.90;;;;;;5117613;28;20042;-66
2023/04/17 09:11:02;;;;;;;3.22;2.30;;;12.70;99.90;;;;;;5117004;28;20441;-66
2023/04/17 09:13:29;;;;;;;3.28;2.30;;;12.70;99.90;;;;;;5111512;28;20036;-66
2023/04/17 09:16:06;;;;;;;4.50;2.63;;;12.80;99.90;;;;;;5113590;28;20051;-66
2023/04/17 09:18:32;;;;;;;8.00;2.95;;;13.00;99.90;;;;;;5115931;28;20024;-65
2023/04/17 09:20:59;;;;;;;3.17;2.47;;;13.10;99.90;;;;;;5115174;28;20027;-65
2023/04/17 09:23:27;;;;;;;4.57;2.25;;;13.10;99.90;;;;;;5115726;28;20051;-65
2023/04/17 09:26:13;;;;;;;5.28;2.58;;;13.10;99.90;;;;;;5115271;28;20480;-65
2023/04/17 09:28:39;;;;;;;3.25;2.47;;;13.20;99.90;;;;;;5115384;28;20035;-66
2023/04/17 09:31:26;;;;;;;6.55;2.58;;;13.20;99.90;;;;;;5115978;28;20495;-66
2023/04/17 09:33:56;;;;;;;4.30;2.53;;;13.30;99.90;;;;;;5115569;28;20488;-66
2023/04/17 09:36:21;;;;;;;4.18;2.30;;;13.40;99.90;;;;;;5115256;28;20398;-66
2023/04/17 09:38:47;;;;;;;3.90;2.50;;;13.50;99.90;;;;;;5115225;28;20034;-66
2023/04/17 09:41:45;;;;;;;6.10;2.45;;;13.60;99.90;;;;;;5115196;28;20020;-66
2023/04/17 09:44:22;;;;;;;3.83;2.67;;;13.60;99.90;;;;;;5012614;28;20561;-66
2023/04/17 09:46:49;;;;;;;4.38;2.28;;;13.70;99.90;;;;;;5012495;28;20029;-66
2023/04/17 09:49:17;;;;;;;2.75;2.45;;;13.80;99.90;;;;;;5012579;28;20117;-66
2023/04/17 09:51:45;;;;;;;2.90;2.22;;;13.80;99.90;;;;;;5012054;28;20053;-66
2023/04/17 09:54:11;;;;;;;7.60;2.55;;;13.90;99.90;;;;;;5012804;28;20514;-66
2023/04/17 09:56:36;;;;;;;3.53;2.53;;;13.90;99.90;;;;;;5012550;28;20076;-65
2023/04/17 09:59:06;;;;;;;2.95;2.17;;;13.90;99.90;;;;;;5012605;28;20116;-65
2023/04/17 10:01:33;;;;;;;3.40;2.38;;;14.00;99.90;;;;;;5012387;28;20483;-65
2023/04/17 10:04:00;;;;;;;4.82;2.58;;;14.20;99.90;;;;;;5012171;28;20033;-65
2023/04/17 10:06:26;;;;;;;3.97;2.17;;;14.30;99.90;;;;;;5012381;28;20495;-66
2023/04/17 10:08:53;;;;;;;3.13;2.58;;;14.30;99.90;;;;;;5012098;28;20582;-66
2023/04/17 10:11:23;;;;;;;2.67;1.98;;;14.40;99.90;;;;;;5012034;28;20050;-65
2023/04/17 10:14:00;;;;;;;4.13;2.20;;;14.40;99.90;;;;;;5012063;28;20077;-65
2023/04/17 10:16:37;;;;;;;2.85;2.25;;;14.40;99.90;;;;;;5011861;28;20032;-66
2023/04/17 10:19:32;;;;;;;3.38;2.22;;;14.40;99.90;;;;;;5020856;28;20489;-66
2023/04/17 10:22:19;;;;;;;3.88;2.25;;;14.60;99.90;;;;;;5053704;28;20013;-66
2023/04/17 10:24:50;;;;;;;3.58;2.28;;;14.70;99.90;;;;;;5053895;28;20029;-66
2023/04/17 10:27:25;;;;;;;3.05;2.50;;;14.70;99.90;;;;;;5054015;28;20542;-66
2023/04/17 10:29:55;;;;;;;3.35;2.22;;;14.80;99.90;;;;;;5052673;28;20029;-66
2023/04/17 10:32:28;;;;;;;4.00;2.25;;;14.90;99.90;;;;;;5053576;28;20037;-66
2023/04/17 10:35:19;;;;;;;3.05;2.30;;;14.90;99.90;;;;;;5053336;28;20090;-65
2023/04/17 10:37:50;;;;;;;3.28;2.28;;;15.00;99.90;;;;;;5054303;28;20032;-66
2023/04/17 10:40:29;;;;;;;6.63;2.38;;;15.00;99.90;;;;;;5076668;28;20020;-66
2023/04/17 10:43:16;;;;;;;4.40;2.20;;;15.10;99.90;;;;;;5075987;28;20023;-65
2023/04/17 10:46:07;;;;;;;4.18;1.88;;;15.10;99.90;;;;;;5081851;28;20074;-63
2023/04/17 10:48:34;;;;;;;2.90;2.00;;;15.30;99.90;;;;;;5079922;28;20048;-65
2023/04/17 10:51:31;;;;;;;4.63;2.05;;;15.40;99.90;;;;;;5082517;28;20030;-65
2023/04/17 10:53:58;;;;;;;4.97;1.92;;;15.40;99.90;;;;;;5073014;28;20033;-65
2023/04/17 10:56:37;;;;;;;3.72;2.40;;;15.40;99.90;;;;;;5073580;28;20028;-65
2023/04/17 10:59:16;;;;;;;4.45;2.22;;;15.50;99.90;;;;;;5073147;28;20036;-65
2023/04/17 11:01:48;;;;;;;2.38;1.95;;;15.60;99.90;;;;;;5073069;28;20008;-66
2023/04/17 11:04:26;;;;;;;2.30;1.80;;;15.70;99.90;;;;;;5072580;28;20508;-65
2023/04/17 11:06:53;;;;;;;1.88;1.70;;;15.70;99.90;;;;;;5073195;28;20554;-65
2023/04/17 11:09:27;;;;;;;2.83;2.00;;;15.80;99.90;;;;;;5072556;28;20407;-65
2023/04/17 11:11:53;;;;;;;4.43;2.00;;;15.90;99.90;;;;;;5091891;28;20044;-65
2023/04/17 11:14:21;;;;;;;5.20;2.10;;;15.90;99.90;;;;;;5113455;28;20446;-64
2023/04/17 11:16:49;;;;;;;3.05;2.00;;;15.90;99.90;;;;;;5112859;28;20106;-65
2023/04/17 11:19:20;;;;;;;3.40;1.92;;;16.00;99.90;;;;;;5113490;28;20034;-65
2023/04/17 11:21:56;;;;;;;3.20;1.88;;;16.00;99.90;;;;;;5113495;28;20038;-64
2023/04/17 11:24:25;;;;;;;4.07;1.85;;;16.10;99.90;;;;;;5113521;28;20396;-65
2023/04/17 11:26:51;;;;;;;3.38;2.00;;;16.20;99.90;;;;;;5113493;28;20061;-65
2023/04/17 11:29:19;;;;;;;2.30;1.90;;;16.20;99.90;;;;;;5113175;28;20036;-65
2023/04/17 11:31:46;;;;;;;5.00;2.83;;;16.20;99.90;;;;;;5126613;27;20058;-64
2023/04/17 11:34:15;;;;;;;3.95;2.60;;;16.30;99.90;;;;;;5133743;27;20526;-62
2023/04/17 11:36:51;;;;;;;3.08;2.30;;;16.50;99.90;;;;;;5121799;27;20019;-62
2023/04/17 11:39:18;;;;;;;4.60;2.35;;;16.60;99.90;;;;;;5120578;27;20072;-64
2023/04/17 11:41:45;;;;;;;2.67;2.30;;;16.80;99.90;;;;;;5121312;27;20020;-63
2023/04/17 11:44:16;;;;;;;2.90;1.95;;;16.80;99.90;;;;;;5118613;27;20034;-63
2023/04/17 11:46:41;;;;;;;2.33;1.90;;;16.80;99.90;;;;;;5113526;27;20042;-64
2023/04/17 11:49:08;;;;;;;2.83;1.73;;;16.90;99.90;;;;;;5112929;28;20039;-65
2023/04/17 11:51:33;;;;;;;3.85;1.88;;;16.90;99.90;;;;;;5112819;28;20027;-64
2023/04/17 11:53:59;;;;;;;2.45;1.70;;;17.00;99.90;;;;;;5112217;28;20890;-64
2023/04/17 11:56:29;;;;;;;2.05;1.70;;;17.00;99.90;;;;;;5111951;28;20028;-64
2023/04/17 11:58:57;;;;;;;2.08;1.70;;;17.10;99.90;;;;;;5112723;28;20089;-64
2023/04/17 12:01:25;;;;;;;3.72;1.92;;;17.20;99.90;;;;;;5112006;28;20579;-64
2023/04/17 12:03:58;;;;;;;2.60;2.08;;;17.30;99.90;;;;;;5112188;28;20054;-64
2023/04/17 12:06:35;;;;;;;2.20;2.00;;;17.30;99.90;;;;;;5112226;28;20503;-64
2023/04/17 12:09:01;;;;;;;2.78;1.65;;;17.40;99.90;;;;;;5112071;28;20034;-63
2023/04/17 12:11:31;;;;;;;3.13;1.90;;;17.50;99.90;;;;;;5111954;28;20044;-63
2023/04/17 12:13:58;;;;;;;4.53;1.98;;;17.50;99.90;;;;;;5112456;28;20055;-65
2023/04/17 12:16:25;;;;;;;4.68;2.05;;;17.60;99.90;;;;;;5111935;28;20027;-65
2023/04/17 12:18:50;;;;;;;3.35;1.98;;;17.70;99.90;;;;;;5112269;28;20629;-64
2023/04/17 12:21:18;;;;;;;3.15;2.00;;;17.80;99.90;;;;;;5112487;28;20098;-65
2023/04/17 12:23:43;;;;;;;3.55;1.95;;;17.80;99.90;;;;;;5112310;28;20491;-65
2023/04/17 12:26:09;;;;;;;3.40;2.15;;;17.90;99.90;;;;;;5116706;28;20038;-65
2023/04/17 12:28:35;;;;;;;3.40;1.70;;;18.00;99.90;;;;;;5120471;28;20020;-65
2023/04/17 12:31:02;;;;;;;3.00;1.80;;;18.00;99.90;;;;;;5121693;28;20076;-65
2023/04/17 12:33:28;;;;;;;2.20;1.83;;;18.00;99.90;;;;;;5122236;28;20445;-65
2023/04/17 12:35:54;;;;;;;2.22;1.60;;;18.10;99.90;;;;;;5120664;28;20028;-65
2023/04/17 12:38:19;;;;;;;3.20;1.80;;;18.10;99.90;;;;;;5118355;28;20031;-64
2023/04/17 12:40:45;;;;;;;3.08;1.92;;;18.20;99.90;;;;;;5121870;28;20123;-64
2023/04/17 12:43:11;;;;;;;2.97;1.80;;;18.30;99.90;;;;;;5123121;28;20080;-65
2023/04/17 12:45:38;;;;;;;4.15;1.90;;;18.40;99.90;;;;;;5116611;28;20024;-63
2023/04/17 12:48:05;;;;;;;2.03;1.70;;;18.50;99.90;;;;;;5127274;28;20039;-64
2023/04/17 12:50:31;;;;;;;3.35;1.80;;;18.60;99.90;;;;;;5129623;27;20031;-64
2023/04/17 12:52:57;;;;;;;2.10;1.75;;;18.60;99.90;;;;;;5124853;27;20062;-65